createdAt,value
2017-12-27T00:01:14.503Z,5.12
2017-12-27T00:03:46.944Z,5.60
2017-12-27T00:06:19.435Z,5.90
2017-12-27T00:08:51.911Z,5.80
2017-12-27T00:11:24.407Z,5.53
2017-12-27T00:13:56.972Z,3.20
2017-12-27T00:16:29.562Z,5.55
2017-12-27T00:19:02.148Z,5.82
2017-12-27T00:21:34.697Z,5.55
2017-12-27T00:24:07.310Z,5.90
2017-12-27T00:26:39.802Z,5.65
2017-12-27T00:29:12.249Z,5.65
2017-12-27T00:31:38.921Z,3.30
2017-12-27T00:34:05.568Z,5.57
2017-12-27T00:36:32.246Z,5.50
2017-12-27T00:38:58.901Z,5.70
2017-12-27T00:41:25.562Z,5.47
2017-12-27T00:43:52.235Z,5.78
2017-12-27T00:46:18.902Z,5.78
2017-12-27T00:48:45.635Z,3.10
2017-12-27T00:51:12.387Z,5.40
2017-12-27T00:53:39.047Z,5.85
2017-12-27T00:56:05.708Z,2.90
2017-12-27T00:58:32.387Z,5.12
2017-12-27T01:00:59.073Z,5.60
2017-12-27T01:03:25.778Z,5.75
2017-12-27T01:05:52.413Z,5.80
2017-12-27T01:08:19.095Z,5.78
2017-12-27T01:10:45.747Z,5.60
2017-12-27T01:13:12.410Z,4.07
2017-12-27T01:15:39.071Z,5.47
2017-12-27T01:18:05.738Z,5.78
2017-12-27T01:20:32.410Z,5.60
2017-12-27T01:22:59.057Z,7.97
2017-12-27T01:25:25.717Z,6.07
2017-12-27T01:27:52.482Z,6.07
2017-12-27T01:30:19.142Z,4.43
2017-12-27T01:32:45.859Z,5.70
2017-12-27T01:35:12.515Z,5.82
2017-12-27T01:37:39.174Z,5.80
2017-12-27T01:40:05.868Z,5.72
2017-12-27T01:42:32.530Z,5.55
2017-12-27T01:44:59.187Z,5.50
2017-12-27T01:47:25.851Z,4.15
2017-12-27T01:49:52.495Z,5.50
2017-12-27T01:52:19.157Z,6.00
2017-12-27T01:54:45.811Z,5.90
2017-12-27T01:57:12.479Z,5.85
2017-12-27T01:59:39.153Z,5.80
2017-12-27T02:02:05.828Z,5.85
2017-12-27T02:04:32.485Z,3.25
2017-12-27T02:06:59.152Z,5.95
2017-12-27T02:09:25.809Z,5.60
2017-12-27T02:11:52.451Z,5.70
2017-12-27T02:14:19.116Z,5.10
2017-12-27T02:16:45.774Z,5.50
2017-12-27T02:19:12.420Z,5.82
2017-12-27T02:21:39.080Z,3.10
2017-12-27T02:24:05.739Z,5.53
2017-12-27T02:26:32.420Z,5.60
2017-12-27T02:28:59.081Z,5.75
2017-12-27T02:31:25.746Z,4.25
2017-12-27T02:33:52.435Z,5.65
2017-12-27T02:36:19.095Z,5.80
2017-12-27T02:38:51.761Z,5.90
2017-12-27T02:41:18.425Z,5.80
2017-12-27T02:43:45.088Z,5.68
2017-12-27T02:46:11.774Z,5.87
2017-12-27T02:48:38.416Z,3.30
2017-12-27T02:51:05.081Z,5.80
2017-12-27T02:53:31.754Z,3.45
2017-12-27T02:55:58.414Z,5.40
2017-12-27T02:58:25.063Z,5.78
2017-12-27T03:00:51.723Z,5.50
2017-12-27T03:03:18.363Z,4.35
2017-12-27T03:05:45.038Z,5.62
2017-12-27T03:08:11.688Z,5.20
2017-12-27T03:10:38.355Z,3.00
2017-12-27T03:13:05.044Z,5.15
2017-12-27T03:15:31.684Z,5.30
2017-12-27T03:17:58.330Z,5.57
2017-12-27T03:20:25.010Z,3.30
2017-12-27T03:22:51.663Z,5.50
2017-12-27T03:25:18.331Z,5.00
2017-12-27T03:27:44.992Z,5.30
2017-12-27T03:30:11.661Z,5.30
2017-12-27T03:32:38.326Z,5.22
2017-12-27T03:35:04.977Z,5.90
2017-12-27T03:37:31.737Z,2.80
2017-12-27T03:39:58.399Z,5.30
2017-12-27T03:42:25.110Z,3.65
2017-12-27T03:44:51.765Z,5.62
2017-12-27T03:47:18.403Z,5.45
2017-12-27T03:49:45.040Z,5.45
2017-12-27T03:52:11.711Z,4.35
2017-12-27T03:54:38.376Z,5.60
2017-12-27T03:57:05.039Z,5.85
2017-12-27T03:59:31.711Z,3.10
2017-12-27T04:01:58.374Z,5.57
2017-12-27T04:04:25.034Z,5.55
2017-12-27T04:06:51.704Z,5.65
2017-12-27T04:09:18.347Z,5.80
2017-12-27T04:11:45.010Z,6.00
2017-12-27T04:14:11.666Z,4.95
2017-12-27T04:16:38.374Z,5.90
2017-12-27T04:19:05.032Z,6.30
2017-12-27T04:21:31.705Z,6.15
2017-12-27T04:23:58.362Z,5.37
2017-12-27T04:26:25.007Z,6.30
2017-12-27T04:28:51.762Z,6.10
2017-12-27T04:31:18.406Z,4.75
2017-12-27T04:33:45.080Z,6.12
2017-12-27T04:36:11.768Z,6.43
2017-12-27T04:38:38.415Z,6.30
2017-12-27T04:41:05.061Z,6.40
2017-12-27T04:43:31.747Z,6.18
2017-12-27T04:45:58.415Z,6.68
2017-12-27T04:48:25.076Z,3.50
2017-12-27T04:50:51.721Z,6.50
2017-12-27T04:53:18.378Z,6.50
2017-12-27T04:55:45.047Z,6.40
2017-12-27T04:58:11.709Z,3.50
2017-12-27T05:00:38.382Z,6.50
2017-12-27T05:03:05.033Z,4.90
2017-12-27T05:05:31.690Z,6.30
2017-12-27T05:07:58.359Z,6.30
2017-12-27T05:10:25.022Z,6.10
2017-12-27T05:12:51.664Z,4.57
2017-12-27T05:15:18.349Z,6.00
2017-12-27T05:17:45.009Z,6.03
2017-12-27T05:20:11.651Z,6.60
2017-12-27T05:22:38.321Z,6.40
2017-12-27T05:25:04.990Z,6.60
2017-12-27T05:27:31.645Z,6.25
2017-12-27T05:29:58.320Z,6.53
2017-12-27T05:32:24.980Z,6.50
2017-12-27T05:34:51.661Z,3.53
2017-12-27T05:37:18.308Z,6.00
2017-12-27T05:39:44.943Z,6.37
2017-12-27T05:42:11.595Z,6.30
2017-12-27T05:44:38.259Z,6.43
2017-12-27T05:47:04.958Z,6.30
2017-12-27T05:49:31.633Z,6.40
2017-12-27T05:51:58.312Z,6.32
2017-12-27T05:54:24.970Z,6.30
2017-12-27T05:56:51.640Z,6.00
2017-12-27T05:59:18.306Z,6.00
2017-12-27T06:01:44.942Z,6.07
2017-12-27T06:04:11.722Z,6.55
2017-12-27T06:06:38.368Z,6.50
2017-12-27T06:09:05.102Z,6.40
2017-12-27T06:11:31.746Z,6.35
2017-12-27T06:13:58.393Z,6.50
2017-12-27T06:16:25.073Z,6.40
2017-12-27T06:18:51.715Z,6.68
2017-12-27T06:21:18.403Z,6.45
2017-12-27T06:23:45.055Z,6.45
2017-12-27T06:26:11.691Z,3.42
2017-12-27T06:28:38.352Z,6.28
2017-12-27T06:31:05.037Z,5.95
2017-12-27T06:33:31.695Z,6.12
2017-12-27T06:35:58.357Z,6.00
2017-12-27T06:38:25.017Z,6.00
2017-12-27T06:40:51.706Z,5.93
2017-12-27T06:43:18.366Z,5.90
2017-12-27T06:45:45.008Z,6.10
2017-12-27T06:48:11.686Z,3.42
2017-12-27T06:50:38.341Z,3.20
2017-12-27T06:53:05.011Z,5.70
2017-12-27T06:55:31.697Z,5.90
2017-12-27T06:57:58.380Z,4.50
2017-12-27T07:00:25.031Z,6.12
2017-12-27T07:02:51.715Z,5.90
2017-12-27T07:05:18.361Z,6.28
2017-12-27T07:07:45.013Z,6.00
2017-12-27T07:10:11.714Z,6.05
2017-12-27T07:12:38.375Z,6.10
2017-12-27T07:15:05.034Z,3.20
2017-12-27T07:17:31.676Z,5.60
2017-12-27T07:19:58.342Z,5.75
2017-12-27T07:22:25.023Z,6.05
2017-12-27T07:24:51.672Z,6.00
2017-12-27T07:27:18.346Z,5.70
2017-12-27T07:29:45.013Z,5.90
2017-12-27T07:32:11.674Z,3.30
2017-12-27T07:34:38.341Z,5.50
2017-12-27T07:37:05.013Z,4.28
2017-12-27T07:39:31.775Z,5.97
2017-12-27T07:41:58.446Z,6.00
2017-12-27T07:44:25.155Z,5.60
2017-12-27T07:46:51.811Z,5.78
2017-12-27T07:49:18.473Z,6.00
2017-12-27T07:51:45.142Z,5.60
2017-12-27T07:54:11.853Z,5.90
2017-12-27T07:56:38.618Z,3.97
2017-12-27T07:59:05.294Z,5.40
2017-12-27T08:01:31.968Z,5.53
2017-12-27T08:03:58.630Z,5.28
2017-12-27T08:06:25.292Z,5.12
2017-12-27T08:08:52.049Z,3.57
2017-12-27T08:11:18.704Z,5.40
2017-12-27T08:13:45.360Z,4.53
2017-12-27T08:16:11.999Z,5.37
2017-12-27T08:18:38.640Z,5.22
2017-12-27T08:21:05.291Z,5.20
2017-12-27T08:23:31.937Z,5.20
2017-12-27T08:25:58.592Z,5.55
2017-12-27T08:28:25.360Z,3.57
2017-12-27T08:30:52.045Z,5.70
2017-12-27T08:33:18.690Z,4.85
2017-12-27T08:35:45.480Z,5.37
2017-12-27T08:38:12.229Z,5.40
2017-12-27T08:40:38.894Z,5.20
2017-12-27T08:43:05.543Z,5.25
2017-12-27T08:45:32.207Z,5.10
2017-12-27T08:47:58.870Z,5.15
2017-12-27T08:50:25.512Z,5.10
2017-12-27T08:52:52.220Z,5.07
2017-12-27T08:55:18.886Z,4.17
2017-12-27T08:57:45.549Z,5.10
2017-12-27T09:00:12.267Z,5.00
2017-12-27T09:02:38.938Z,4.70
2017-12-27T09:05:05.607Z,4.75
2017-12-27T09:07:32.263Z,4.82
2017-12-27T09:09:58.931Z,4.70
2017-12-27T09:12:25.696Z,4.90
2017-12-27T09:14:52.358Z,4.70
2017-12-27T09:17:19.056Z,4.50
2017-12-27T09:19:45.804Z,3.47
2017-12-27T09:22:12.461Z,4.60
2017-12-27T09:24:39.120Z,4.50
2017-12-27T09:27:05.787Z,4.50
2017-12-27T09:29:32.457Z,4.40
2017-12-27T09:31:59.124Z,4.28
2017-12-27T09:34:25.787Z,4.43
2017-12-27T09:36:52.451Z,4.45
2017-12-27T09:39:19.129Z,4.30
2017-12-27T09:41:45.878Z,2.20
2017-12-27T09:44:12.524Z,4.07
2017-12-27T09:46:39.243Z,4.20
2017-12-27T09:49:05.907Z,4.10
2017-12-27T09:51:32.585Z,4.20
2017-12-27T09:53:59.243Z,4.22
2017-12-27T09:56:26.809Z,4.30
2017-12-27T09:58:53.463Z,4.30
2017-12-27T10:01:20.138Z,4.25
2017-12-27T10:03:46.788Z,4.20
2017-12-27T10:06:13.448Z,4.20
2017-12-27T10:08:40.110Z,4.40
2017-12-27T10:11:06.773Z,4.30
2017-12-27T10:13:33.435Z,4.20
2017-12-27T10:16:00.084Z,4.20
2017-12-27T10:18:26.766Z,2.10
2017-12-27T10:20:53.408Z,4.20
2017-12-27T10:23:20.057Z,4.00
2017-12-27T10:25:46.759Z,4.03
2017-12-27T10:28:13.403Z,3.95
2017-12-27T10:30:40.044Z,4.15
2017-12-27T10:33:06.707Z,4.20
2017-12-27T10:35:33.351Z,3.80
2017-12-27T10:38:00.022Z,4.00
2017-12-27T10:40:26.687Z,3.85
2017-12-27T10:42:53.331Z,3.72
2017-12-27T10:45:20.671Z,3.85
2017-12-27T10:47:47.331Z,3.80
2017-12-27T10:50:14.005Z,2.75
2017-12-27T10:52:40.659Z,3.47
2017-12-27T10:55:07.819Z,3.70
2017-12-27T10:57:34.465Z,3.40
2017-12-27T11:00:01.111Z,3.62
2017-12-27T11:02:27.771Z,3.50
2017-12-27T11:04:54.429Z,3.40
2017-12-27T11:07:21.101Z,3.50
2017-12-27T11:09:47.794Z,3.62
2017-12-27T11:12:14.432Z,6.82
2017-12-27T11:14:41.100Z,3.72
2017-12-27T11:17:07.760Z,3.47
2017-12-27T11:19:34.410Z,3.50
2017-12-27T11:22:01.093Z,3.60
2017-12-27T11:24:27.779Z,2.30
2017-12-27T11:26:54.438Z,3.50
2017-12-27T11:29:21.118Z,3.20
2017-12-27T11:31:47.802Z,3.25
2017-12-27T11:34:14.465Z,3.40
2017-12-27T11:36:41.152Z,3.28
2017-12-27T11:39:07.800Z,3.10
2017-12-27T11:41:34.457Z,3.00
2017-12-27T11:44:01.115Z,3.05
2017-12-27T11:46:27.780Z,3.10
2017-12-27T11:48:54.453Z,3.20
2017-12-27T11:51:21.118Z,3.15
2017-12-27T11:53:47.759Z,1.67
2017-12-27T11:56:14.406Z,2.83
2017-12-27T11:58:41.150Z,2.80
2017-12-27T12:01:07.832Z,2.80
2017-12-27T12:03:34.497Z,2.70
2017-12-27T12:06:01.134Z,2.80
2017-12-27T12:08:27.819Z,2.75
2017-12-27T12:10:54.512Z,2.78
2017-12-27T12:13:21.178Z,2.85
2017-12-27T12:15:47.926Z,2.70
2017-12-27T12:18:14.576Z,2.87
2017-12-27T12:20:41.234Z,2.80
2017-12-27T12:23:07.940Z,2.60
2017-12-27T12:25:34.616Z,2.60
2017-12-27T12:28:01.257Z,2.78
2017-12-27T12:30:27.917Z,2.72
2017-12-27T12:32:54.598Z,2.58
2017-12-27T12:35:21.340Z,2.50
2017-12-27T12:37:48.041Z,2.50
2017-12-27T12:40:14.702Z,2.40
2017-12-27T12:42:41.359Z,2.08
2017-12-27T12:45:08.028Z,1.90
2017-12-27T12:47:34.758Z,2.00
2017-12-27T12:50:01.402Z,2.00
2017-12-27T12:52:28.063Z,2.03
2017-12-27T12:54:54.703Z,2.00
2017-12-27T12:57:21.382Z,2.05
2017-12-27T12:59:48.047Z,2.20
2017-12-27T13:02:14.706Z,2.20
2017-12-27T13:04:41.389Z,2.03
2017-12-27T13:07:08.040Z,2.10
2017-12-27T13:09:34.704Z,2.20
2017-12-27T13:12:01.386Z,2.10
2017-12-27T13:14:28.063Z,0.90
2017-12-27T13:16:54.733Z,1.83
2017-12-27T13:19:21.397Z,1.70
2017-12-27T13:21:48.048Z,1.90
2017-12-27T13:24:14.731Z,1.90
2017-12-27T13:26:41.390Z,1.90
2017-12-27T13:29:08.050Z,2.00
2017-12-27T13:31:34.751Z,2.10
2017-12-27T13:34:01.496Z,2.03
2017-12-27T13:36:28.170Z,2.30
2017-12-27T13:38:54.815Z,2.30
2017-12-27T13:41:21.459Z,2.47
2017-12-27T13:43:48.143Z,2.70
2017-12-27T13:46:14.783Z,2.60
2017-12-27T13:48:41.429Z,2.50
2017-12-27T13:51:08.125Z,2.58
2017-12-27T13:53:34.768Z,2.60
2017-12-27T13:56:01.466Z,2.70
2017-12-27T13:58:28.176Z,2.70
2017-12-27T14:00:54.834Z,2.80
2017-12-27T14:03:21.475Z,2.90
2017-12-27T14:05:48.212Z,3.10
2017-12-27T14:08:14.867Z,2.80
2017-12-27T14:10:41.542Z,7.87
2017-12-27T14:13:08.203Z,3.00
2017-12-27T14:15:34.844Z,3.10
2017-12-27T14:18:01.511Z,3.20
2017-12-27T14:20:28.180Z,3.20
2017-12-27T14:22:54.846Z,3.10
2017-12-27T14:25:21.511Z,3.20
2017-12-27T14:27:48.170Z,3.30
2017-12-27T14:30:14.904Z,3.20
2017-12-27T14:32:41.582Z,3.20
2017-12-27T14:35:08.258Z,3.08
2017-12-27T14:37:34.903Z,3.60
2017-12-27T14:40:01.559Z,3.22
2017-12-27T14:42:28.217Z,3.17
2017-12-27T14:44:54.884Z,3.25
2017-12-27T14:47:21.546Z,3.17
2017-12-27T14:49:48.200Z,3.40
2017-12-27T14:52:14.955Z,3.10
2017-12-27T14:54:41.609Z,3.20
2017-12-27T14:57:08.293Z,3.35
2017-12-27T14:59:34.962Z,3.22
2017-12-27T15:02:01.615Z,3.37
2017-12-27T15:04:28.293Z,3.40
2017-12-27T15:06:54.939Z,3.60
2017-12-27T15:09:21.579Z,3.40
2017-12-27T15:11:48.250Z,3.30
2017-12-27T15:14:14.917Z,3.30
2017-12-27T15:16:41.579Z,3.40
2017-12-27T15:19:08.237Z,3.33
2017-12-27T15:21:34.893Z,3.50
2017-12-27T15:24:01.572Z,3.50
2017-12-27T15:26:28.238Z,3.50
2017-12-27T15:28:54.883Z,3.60
2017-12-27T15:31:21.570Z,3.40
2017-12-27T15:33:48.211Z,3.60
2017-12-27T15:36:14.925Z,1.70
2017-12-27T15:38:41.593Z,3.40
2017-12-27T15:41:08.259Z,3.45
2017-12-27T15:43:34.912Z,1.50
2017-12-27T15:46:01.556Z,3.40
2017-12-27T15:48:28.215Z,3.50
2017-12-27T15:50:54.917Z,3.30
2017-12-27T15:53:21.579Z,3.50
2017-12-27T15:55:48.258Z,3.50
2017-12-27T15:58:14.930Z,3.37
2017-12-27T16:00:41.580Z,3.40
2017-12-27T16:03:08.253Z,3.50
2017-12-27T16:05:34.957Z,3.60
2017-12-27T16:08:01.599Z,3.40
2017-12-27T16:10:28.266Z,3.47
2017-12-27T16:12:54.978Z,3.50
2017-12-27T16:15:21.650Z,3.70
2017-12-27T16:17:48.295Z,3.35
2017-12-27T16:20:15.014Z,4.00
2017-12-27T16:22:41.701Z,4.00
2017-12-27T16:25:08.414Z,3.67
2017-12-27T16:27:35.142Z,3.50
2017-12-27T16:30:01.816Z,3.70
2017-12-27T16:32:28.465Z,3.40
2017-12-27T16:34:55.116Z,3.45
2017-12-27T16:37:21.900Z,3.60
2017-12-27T16:39:48.556Z,3.60
2017-12-27T16:42:15.229Z,3.40
2017-12-27T16:44:41.902Z,3.40
2017-12-27T16:47:08.563Z,2.05
2017-12-27T16:49:35.238Z,3.30
2017-12-27T16:52:01.912Z,3.40
2017-12-27T16:54:28.575Z,1.75
2017-12-27T16:56:55.239Z,3.30
2017-12-27T16:59:21.929Z,3.50
2017-12-27T17:01:48.593Z,3.50
2017-12-27T17:04:15.265Z,3.62
2017-12-27T17:06:41.928Z,3.70
2017-12-27T17:09:08.579Z,3.60
2017-12-27T17:11:35.237Z,3.80
2017-12-27T17:14:01.905Z,3.87
2017-12-27T17:16:28.566Z,3.87
2017-12-27T17:18:55.282Z,3.75
2017-12-27T17:21:21.954Z,3.90
2017-12-27T17:23:48.608Z,3.80
2017-12-27T17:26:15.273Z,3.90
2017-12-27T17:28:41.935Z,3.22
2017-12-27T17:31:08.583Z,3.70
2017-12-27T17:33:35.260Z,3.62
2017-12-27T17:36:01.963Z,5.12
2017-12-27T17:38:28.638Z,3.85
2017-12-27T17:40:55.299Z,3.75
2017-12-27T17:43:21.956Z,3.85
2017-12-27T17:45:48.603Z,4.00
2017-12-27T17:48:15.274Z,3.83
2017-12-27T17:50:41.982Z,3.95
2017-12-27T17:53:08.628Z,3.70
2017-12-27T17:55:35.334Z,3.90
2017-12-27T17:58:02.007Z,3.70
2017-12-27T18:00:28.680Z,3.62
2017-12-27T18:02:55.346Z,3.60
2017-12-27T18:05:22.010Z,3.80
2017-12-27T18:07:48.766Z,1.77
2017-12-27T18:10:15.433Z,3.53
2017-12-27T18:12:42.083Z,3.45
2017-12-27T18:15:08.763Z,3.50
2017-12-27T18:17:35.422Z,3.60
2017-12-27T18:20:02.059Z,3.60
2017-12-27T18:22:28.730Z,3.40
2017-12-27T18:24:55.367Z,3.60
2017-12-27T18:27:22.030Z,3.60
2017-12-27T18:29:48.701Z,3.67
2017-12-27T18:32:15.362Z,3.53
2017-12-27T18:34:42.030Z,3.60
2017-12-27T18:37:08.696Z,3.53
2017-12-27T18:39:35.363Z,3.50
2017-12-27T18:42:02.006Z,3.60
2017-12-27T18:44:28.693Z,2.15
2017-12-27T18:46:55.353Z,3.30
2017-12-27T18:49:22.010Z,3.45
2017-12-27T18:51:48.690Z,3.40
2017-12-27T18:54:15.341Z,3.60
2017-12-27T18:56:41.983Z,3.50
2017-12-27T18:59:08.672Z,3.40
2017-12-27T19:01:35.336Z,3.58
2017-12-27T19:04:01.997Z,3.50
2017-12-27T19:06:28.697Z,3.47
2017-12-27T19:08:55.364Z,3.50
2017-12-27T19:11:22.007Z,3.40
2017-12-27T19:13:48.685Z,3.40
2017-12-27T19:16:15.335Z,3.20
2017-12-27T19:18:42.001Z,3.50
2017-12-27T19:21:08.678Z,2.72
2017-12-27T19:23:35.335Z,2.05
2017-12-27T19:26:02.029Z,3.40
2017-12-27T19:28:28.672Z,3.40
2017-12-27T19:30:55.316Z,3.60
2017-12-27T19:33:21.977Z,3.40
2017-12-27T19:35:48.627Z,3.40
2017-12-27T19:38:15.279Z,3.20
2017-12-27T19:40:41.953Z,3.50
2017-12-27T19:43:08.614Z,3.67
2017-12-27T19:45:35.282Z,3.50
2017-12-27T19:48:01.943Z,3.60
2017-12-27T19:50:28.606Z,3.50
2017-12-27T19:52:55.251Z,3.12
2017-12-27T19:55:21.936Z,3.50
2017-12-27T19:57:48.585Z,3.50
2017-12-27T20:00:15.310Z,3.60
2017-12-27T20:02:41.993Z,3.40
2017-12-27T20:05:08.644Z,3.40
2017-12-27T20:07:35.326Z,3.50
2017-12-27T20:10:01.999Z,3.40
2017-12-27T20:12:28.676Z,2.40
2017-12-27T20:14:55.378Z,3.60
2017-12-27T20:17:22.052Z,3.30
2017-12-27T20:19:48.764Z,3.37
2017-12-27T20:22:15.442Z,3.60
2017-12-27T20:24:42.109Z,3.50
2017-12-27T20:27:08.772Z,3.55
2017-12-27T20:29:35.464Z,3.70
2017-12-27T20:32:02.145Z,3.50
2017-12-27T20:34:28.792Z,1.90
2017-12-27T20:36:55.496Z,3.10
2017-12-27T20:39:22.139Z,3.60
2017-12-27T20:41:48.832Z,3.40
2017-12-27T20:44:15.691Z,3.55
2017-12-27T20:46:42.345Z,3.65
2017-12-27T20:49:09.018Z,3.70
2017-12-27T20:51:35.676Z,3.87
2017-12-27T20:54:02.355Z,3.60
2017-12-27T20:56:29.002Z,3.50
2017-12-27T20:58:55.682Z,3.90
2017-12-27T21:01:22.380Z,3.72
2017-12-27T21:03:49.049Z,3.80
2017-12-27T21:06:15.789Z,3.80
2017-12-27T21:08:42.450Z,3.80
2017-12-27T21:11:09.114Z,3.80
2017-12-27T21:13:35.808Z,3.80
2017-12-27T21:16:02.474Z,1.90
2017-12-27T21:18:29.142Z,3.72
2017-12-27T21:20:55.819Z,3.90
2017-12-27T21:23:22.481Z,3.85
2017-12-27T21:25:49.136Z,3.75
2017-12-27T21:28:15.844Z,4.00
2017-12-27T21:30:42.484Z,3.80
2017-12-27T21:33:09.148Z,6.68
2017-12-27T21:35:35.826Z,1.83
2017-12-27T21:38:02.494Z,3.75
2017-12-27T21:40:29.143Z,3.97
2017-12-27T21:42:55.826Z,3.83
2017-12-27T21:45:22.494Z,3.75
2017-12-27T21:47:54.887Z,2.47
2017-12-27T21:50:21.554Z,3.70
2017-12-27T21:52:48.223Z,3.70
2017-12-27T21:55:14.908Z,1.90
2017-12-27T21:57:41.556Z,4.00
2017-12-27T22:00:14.072Z,3.90
2017-12-27T22:02:40.731Z,3.80
2017-12-27T22:05:07.389Z,4.00
2017-12-27T22:07:34.166Z,3.80
2017-12-27T22:10:00.841Z,4.10
2017-12-27T22:12:27.488Z,4.20
2017-12-27T22:14:54.189Z,2.00
2017-12-27T22:17:20.848Z,3.70
2017-12-27T22:19:47.503Z,3.97
2017-12-27T22:22:14.194Z,4.05
2017-12-27T22:24:40.924Z,3.90
2017-12-27T22:27:07.580Z,3.10
2017-12-27T22:29:34.300Z,4.07
2017-12-27T22:32:00.961Z,3.95
2017-12-27T22:34:27.707Z,2.60
2017-12-27T22:36:54.373Z,3.70
2017-12-27T22:39:21.015Z,3.80
2017-12-27T22:41:47.675Z,3.55
2017-12-27T22:44:14.331Z,4.00
2017-12-27T22:46:40.990Z,3.92
2017-12-27T22:49:07.648Z,3.97
2017-12-27T22:51:34.300Z,3.90
2017-12-27T22:54:01.003Z,1.98
2017-12-27T22:56:27.678Z,4.00
2017-12-27T22:58:54.334Z,4.00
2017-12-27T23:01:21.054Z,3.90
2017-12-27T23:03:47.771Z,4.10
2017-12-27T23:06:14.432Z,2.00
2017-12-27T23:08:41.149Z,3.58
2017-12-27T23:11:07.841Z,3.80
2017-12-27T23:13:34.514Z,1.90
2017-12-27T23:16:01.175Z,3.80
2017-12-27T23:18:27.857Z,3.90
2017-12-27T23:20:54.516Z,3.90
2017-12-27T23:23:21.200Z,3.80
2017-12-27T23:25:47.869Z,2.15
2017-12-27T23:28:14.528Z,3.80
2017-12-27T23:30:41.222Z,3.70
2017-12-27T23:33:07.872Z,2.65
2017-12-27T23:35:34.598Z,3.72
2017-12-27T23:38:01.251Z,3.90
2017-12-27T23:40:27.891Z,3.80
2017-12-27T23:42:54.560Z,4.00
2017-12-27T23:45:21.245Z,3.90
2017-12-27T23:47:47.908Z,3.85
2017-12-27T23:50:14.548Z,3.90
2017-12-27T23:52:41.264Z,3.75
2017-12-27T23:55:07.948Z,3.65
2017-12-27T23:57:34.595Z,4.03
